createdAt,value
2023-02-08T00:01:25.293Z,15.85
2023-02-08T00:03:53.975Z,14.13
2023-02-08T00:06:22.673Z,16.27
2023-02-08T00:08:51.308Z,18.17
2023-02-08T00:11:19.934Z,14.20
2023-02-08T00:13:48.822Z,13.90
2023-02-08T00:16:18.304Z,15.78
2023-02-08T00:18:46.957Z,14.15
2023-02-08T00:21:17.672Z,15.53
2023-02-08T00:23:47.251Z,15.83
2023-02-08T00:26:16.489Z,16.37
2023-02-08T00:28:45.586Z,14.03
2023-02-08T00:31:14.193Z,14.30
2023-02-08T00:33:42.946Z,17.00
2023-02-08T00:36:13.134Z,14.25
2023-02-08T00:38:41.680Z,16.87
2023-02-08T00:41:10.594Z,16.05
2023-02-08T00:43:39.102Z,18.10
2023-02-08T00:46:09.463Z,14.78
2023-02-08T00:48:38.086Z,14.83
2023-02-08T00:51:15.212Z,16.35
2023-02-08T00:53:45.995Z,20.75
2023-02-08T00:56:15.664Z,16.57
2023-02-08T00:58:45.031Z,18.35
2023-02-08T01:01:13.986Z,17.05
2023-02-08T01:03:43.687Z,16.93
2023-02-08T01:06:15.532Z,15.85
2023-02-08T01:08:44.263Z,15.08
2023-02-08T01:11:17.505Z,17.15
2023-02-08T01:13:46.900Z,17.05
2023-02-08T01:16:21.395Z,17.10
2023-02-08T01:18:52.518Z,24.30
2023-02-08T01:21:23.728Z,26.42
2023-02-08T01:23:52.587Z,20.80
2023-02-08T01:26:22.484Z,15.63
2023-02-08T01:28:51.566Z,18.95
2023-02-08T01:31:25.932Z,15.05
2023-02-08T01:33:54.416Z,21.87
2023-02-08T01:36:23.616Z,16.82
2023-02-08T01:38:52.136Z,16.65
2023-02-08T01:41:26.324Z,19.55
2023-02-08T01:44:17.303Z,14.98
2023-02-08T01:46:49.179Z,13.48
2023-02-08T01:49:23.405Z,16.17
2023-02-08T01:51:55.030Z,16.30
2023-02-08T01:54:26.539Z,16.17
2023-02-08T01:56:55.215Z,17.50
2023-02-08T01:59:32.508Z,15.43
2023-02-08T02:02:02.781Z,15.18
2023-02-08T02:04:32.066Z,15.43
2023-02-08T02:07:02.186Z,15.85
2023-02-08T02:09:42.704Z,15.70
2023-02-08T02:12:12.089Z,16.87
2023-02-08T02:14:42.352Z,17.12
2023-02-08T02:17:13.443Z,18.27
2023-02-08T02:19:45.049Z,17.70
2023-02-08T02:22:34.567Z,15.10
2023-02-08T02:25:17.748Z,13.93
2023-02-08T02:28:01.168Z,14.85
2023-02-08T02:30:35.823Z,16.27
2023-02-08T02:33:22.207Z,18.52
2023-02-08T02:36:02.620Z,13.50
2023-02-08T02:38:42.605Z,15.83
2023-02-08T02:41:46.803Z,15.70
2023-02-08T02:44:23.518Z,15.15
2023-02-08T02:47:12.859Z,18.62
2023-02-08T02:49:53.363Z,15.15
2023-02-08T02:52:32.421Z,16.48
2023-02-08T02:55:04.095Z,9.68
2023-02-08T02:57:34.992Z,14.07
2023-02-08T03:00:09.416Z,14.87
2023-02-08T03:02:38.387Z,15.53
2023-02-08T03:05:09.722Z,15.68
2023-02-08T03:08:03.285Z,15.15
2023-02-08T03:10:40.849Z,15.05
2023-02-08T03:13:32.314Z,14.83
2023-02-08T03:16:09.309Z,19.45
2023-02-08T03:18:58.937Z,14.65
2023-02-08T03:21:57.558Z,20.60
2023-02-08T03:24:31.679Z,18.00
2023-02-08T03:27:05.954Z,15.43
2023-02-08T03:29:46.386Z,16.10
2023-02-08T03:32:20.850Z,16.82
2023-02-08T03:34:58.093Z,19.42
2023-02-08T03:37:32.199Z,17.50
2023-02-08T03:40:15.320Z,19.27
2023-02-08T03:42:45.420Z,17.17
2023-02-08T03:45:22.856Z,14.28
2023-02-08T03:47:54.838Z,24.45
2023-02-08T03:50:24.824Z,16.87
2023-02-08T03:52:54.410Z,20.82
2023-02-08T03:55:25.968Z,18.77
2023-02-08T03:58:00.137Z,15.83
2023-02-08T04:00:31.315Z,16.93
2023-02-08T04:03:08.707Z,17.62
2023-02-08T04:05:37.884Z,18.92
2023-02-08T04:08:06.490Z,20.45
2023-02-08T04:10:35.135Z,16.05
2023-02-08T04:13:04.470Z,16.37
2023-02-08T04:15:33.030Z,17.05
2023-02-08T04:18:01.207Z,16.57
2023-02-08T04:20:29.798Z,17.62
2023-02-08T04:22:58.419Z,14.13
2023-02-08T04:25:26.978Z,17.07
2023-02-08T04:27:55.620Z,16.95
2023-02-08T04:30:24.119Z,18.55
2023-02-08T04:32:52.656Z,16.17
2023-02-08T04:35:21.238Z,17.37
2023-02-08T04:37:49.756Z,19.77
2023-02-08T04:40:18.471Z,19.67
2023-02-08T04:42:47.012Z,15.40
2023-02-08T04:45:15.601Z,16.23
2023-02-08T04:47:44.146Z,14.30
2023-02-08T04:50:12.691Z,13.55
2023-02-08T04:52:41.305Z,17.37
2023-02-08T04:55:10.142Z,18.37
2023-02-08T04:57:38.652Z,16.62
2023-02-08T05:00:07.663Z,15.18
2023-02-08T05:02:36.268Z,17.80
2023-02-08T05:05:05.116Z,18.50
2023-02-08T05:07:33.690Z,15.45
2023-02-08T05:10:02.411Z,15.48
2023-02-08T05:12:31.017Z,15.35
2023-02-08T05:14:59.585Z,15.78
2023-02-08T05:17:28.115Z,15.35
2023-02-08T05:19:56.812Z,20.65
2023-02-08T05:22:25.372Z,16.67
2023-02-08T05:24:53.929Z,18.02
2023-02-08T05:27:22.734Z,17.60
2023-02-08T05:29:51.306Z,18.32
2023-02-08T05:32:20.416Z,16.57
2023-02-08T05:34:49.018Z,20.17
2023-02-08T05:37:17.552Z,18.27
2023-02-08T05:39:46.107Z,20.82
2023-02-08T05:42:14.652Z,16.97
2023-02-08T05:44:43.198Z,18.85
2023-02-08T05:47:11.996Z,18.82
2023-02-08T05:49:40.543Z,22.40
2023-02-08T05:52:09.114Z,20.92
2023-02-08T05:54:37.631Z,17.10
2023-02-08T05:57:06.345Z,21.10
2023-02-08T05:59:34.893Z,16.87
2023-02-08T06:02:03.443Z,18.67
2023-02-08T06:04:31.983Z,19.32
2023-02-08T06:07:00.531Z,18.95
2023-02-08T06:09:30.241Z,15.68
2023-02-08T06:11:58.781Z,17.32
2023-02-08T06:14:27.384Z,20.85
2023-02-08T06:16:55.996Z,17.85
2023-02-08T06:19:24.548Z,18.98
2023-02-08T06:21:53.090Z,15.63
2023-02-08T06:24:21.637Z,16.97
2023-02-08T06:26:50.178Z,15.45
2023-02-08T06:29:18.724Z,18.75
2023-02-08T06:31:47.380Z,16.80
2023-02-08T06:34:15.954Z,18.73
2023-02-08T06:36:45.686Z,21.15
2023-02-08T06:39:14.520Z,16.73
2023-02-08T06:41:43.065Z,18.85
2023-02-08T06:44:11.619Z,27.52
2023-02-08T06:46:40.166Z,18.67
2023-02-08T06:49:08.820Z,15.93
2023-02-08T06:51:37.426Z,14.90
2023-02-08T06:54:05.964Z,18.02
2023-02-08T06:56:34.672Z,14.30
2023-02-08T06:59:03.681Z,13.00
2023-02-08T07:01:32.303Z,13.18
2023-02-08T07:04:00.868Z,17.70
2023-02-08T07:06:29.471Z,13.62
2023-02-08T07:08:58.023Z,16.00
2023-02-08T07:11:26.641Z,14.20
2023-02-08T07:13:55.180Z,15.10
2023-02-08T07:16:23.741Z,16.73
2023-02-08T07:18:52.294Z,15.28
2023-02-08T07:21:21.628Z,14.40
2023-02-08T07:23:50.245Z,17.45
2023-02-08T07:26:18.793Z,17.10
2023-02-08T07:28:47.450Z,16.50
2023-02-08T07:31:18.092Z,16.55
2023-02-08T07:33:46.660Z,18.15
2023-02-08T07:36:15.211Z,17.95
2023-02-08T07:38:44.140Z,16.00
2023-02-08T07:41:14.934Z,18.37
2023-02-08T07:43:44.214Z,15.50
2023-02-08T07:46:18.323Z,16.23
2023-02-08T07:48:47.081Z,18.00
2023-02-08T07:51:15.659Z,17.65
2023-02-08T07:53:43.960Z,15.78
2023-02-08T07:56:12.797Z,16.05
2023-02-08T07:58:41.697Z,16.00
2023-02-08T08:01:21.380Z,16.48
2023-02-08T08:03:40.125Z,19.15
2023-02-08T08:06:08.375Z,14.70
2023-02-08T08:08:36.642Z,19.52
2023-02-08T08:11:04.921Z,13.83
2023-02-08T08:13:33.137Z,23.20
2023-02-08T08:16:01.385Z,12.45
2023-02-08T08:18:29.652Z,16.82
2023-02-08T08:20:58.123Z,20.65
2023-02-08T08:23:27.986Z,17.17
2023-02-08T08:25:56.352Z,14.80
2023-02-08T08:28:24.654Z,16.93
2023-02-08T08:30:53.006Z,13.58
2023-02-08T08:33:21.291Z,15.95
2023-02-08T08:35:49.531Z,14.70
2023-02-08T08:38:17.940Z,16.70
2023-02-08T08:40:46.147Z,14.20
2023-02-08T08:43:14.387Z,12.90
2023-02-08T08:45:42.579Z,14.93
2023-02-08T08:48:10.843Z,13.40
2023-02-08T08:50:39.684Z,12.82
2023-02-08T08:53:08.044Z,12.28
2023-02-08T08:55:36.248Z,12.43
2023-02-08T08:58:04.443Z,12.45
2023-02-08T09:00:32.659Z,14.10
2023-02-08T09:03:00.951Z,14.00
2023-02-08T09:05:29.207Z,14.05
2023-02-08T09:07:57.982Z,14.43
2023-02-08T09:10:26.195Z,14.03
2023-02-08T09:12:54.462Z,14.23
2023-02-08T09:15:22.705Z,11.73
2023-02-08T09:17:50.903Z,14.53
2023-02-08T09:20:19.259Z,11.53
2023-02-08T09:22:47.483Z,11.15
2023-02-08T09:25:15.916Z,12.37
2023-02-08T09:27:44.206Z,12.75
2023-02-08T09:30:12.507Z,14.80
2023-02-08T09:32:40.818Z,12.47
2023-02-08T09:35:09.254Z,11.28
2023-02-08T09:37:37.491Z,13.28
2023-02-08T09:40:05.859Z,9.93
2023-02-08T09:42:41.286Z,10.48
2023-02-08T09:45:13.958Z,13.43
2023-02-08T09:50:20.179Z,12.37
2023-02-08T09:52:50.421Z,6.85
2023-02-08T09:55:23.093Z,10.35
2023-02-08T10:00:20.373Z,9.95
2023-02-08T10:02:49.720Z,8.85
2023-02-08T10:05:19.464Z,12.65
2023-02-08T10:07:47.879Z,8.78
2023-02-08T10:10:23.663Z,11.28
2023-02-08T10:12:56.376Z,9.43
2023-02-08T10:15:29.026Z,5.55
2023-02-08T10:20:30.983Z,9.05
2023-02-08T10:25:30.949Z,10.15
2023-02-08T10:28:18.802Z,34.92
2023-02-08T10:30:54.556Z,8.18
2023-02-08T10:33:24.329Z,4.17
2023-02-08T10:35:53.869Z,7.30
2023-02-08T10:38:24.985Z,6.15
2023-02-08T10:40:55.497Z,5.12
2023-02-08T10:43:37.084Z,6.00
2023-02-08T10:46:06.845Z,6.37
2023-02-08T10:48:39.740Z,6.90
2023-02-08T10:51:09.483Z,9.13
2023-02-08T10:53:37.712Z,6.80
2023-02-08T10:56:06.646Z,6.05
2023-02-08T10:58:34.911Z,6.60
2023-02-08T11:01:03.508Z,6.78
2023-02-08T11:03:32.646Z,5.00
2023-02-08T11:06:00.937Z,7.12
2023-02-08T11:08:29.186Z,8.45
2023-02-08T11:11:05.395Z,6.40
2023-02-08T11:13:36.714Z,6.60
2023-02-08T11:16:06.684Z,9.95
2023-02-08T11:18:36.447Z,6.05
2023-02-08T11:21:06.208Z,5.90
2023-02-08T11:23:35.408Z,6.40
2023-02-08T11:26:18.348Z,7.85
2023-02-08T11:31:18.683Z,2.47
2023-02-08T11:34:02.952Z,2.62
2023-02-08T11:36:32.692Z,7.78
2023-02-08T11:39:05.585Z,9.38
2023-02-08T11:44:05.722Z,3.98
2023-02-08T11:49:01.530Z,6.72
2023-02-08T11:51:36.501Z,5.65
2023-02-08T11:54:05.174Z,7.75
2023-02-08T11:56:34.562Z,9.40
2023-02-08T11:59:19.785Z,6.10
2023-02-08T12:01:48.096Z,9.50
2023-02-08T12:04:17.674Z,8.43
2023-02-08T12:06:53.361Z,6.95
2023-02-08T12:09:39.682Z,5.72
2023-02-08T12:12:13.526Z,7.08
2023-02-08T12:14:45.973Z,6.20
2023-02-08T12:17:33.829Z,5.05
2023-02-08T12:20:19.890Z,3.65
2023-02-08T12:22:52.319Z,3.75
2023-02-08T12:25:24.790Z,5.50
2023-02-08T12:27:54.747Z,4.87
2023-02-08T12:30:36.041Z,3.83
2023-02-08T12:33:05.799Z,4.30
2023-02-08T12:36:03.606Z,3.55
2023-02-08T12:38:49.588Z,6.45
2023-02-08T12:41:22.559Z,5.17
2023-02-08T12:43:52.317Z,3.40
2023-02-08T12:46:34.091Z,5.40
2023-02-08T12:49:09.758Z,6.05
2023-02-08T12:51:39.543Z,7.53
2023-02-08T12:54:12.050Z,6.20
2023-02-08T12:56:50.930Z,5.90
2023-02-08T12:59:29.171Z,5.83
2023-02-08T13:01:59.794Z,5.87
2023-02-08T13:04:29.527Z,5.40
2023-02-08T13:06:58.683Z,3.58
2023-02-08T13:09:32.406Z,4.97
2023-02-08T13:12:03.164Z,1.82
2023-02-08T13:14:44.869Z,6.90
2023-02-08T13:17:14.613Z,4.90
2023-02-08T13:19:59.723Z,5.55
2023-02-08T13:22:21.652Z,5.25
2023-02-08T13:25:05.081Z,4.80
2023-02-08T13:27:22.765Z,2.35
2023-02-08T13:29:52.748Z,6.00
2023-02-08T13:32:29.866Z,5.75
2023-02-08T13:34:59.597Z,2.08
2023-02-08T13:37:31.492Z,5.62
2023-02-08T13:40:01.255Z,5.15
2023-02-08T13:42:39.921Z,4.28
2023-02-08T13:45:08.957Z,3.62
2023-02-08T13:47:51.770Z,5.35
2023-02-08T13:50:29.208Z,4.70
2023-02-08T13:52:57.544Z,5.95
2023-02-08T13:55:37.713Z,5.28
2023-02-08T13:58:07.494Z,4.97
2023-02-08T14:00:36.789Z,6.40
2023-02-08T14:03:06.669Z,7.28
2023-02-08T14:05:36.508Z,4.65
2023-02-08T14:08:05.972Z,7.15
2023-02-08T14:10:37.446Z,4.95
2023-02-08T14:13:08.994Z,5.70
2023-02-08T14:15:38.888Z,5.72
2023-02-08T14:18:09.671Z,6.97
2023-02-08T14:20:39.948Z,5.28
2023-02-08T14:23:24.489Z,4.17
2023-02-08T14:25:54.308Z,6.42
2023-02-08T14:28:24.107Z,5.85
2023-02-08T14:30:53.521Z,3.87
2023-02-08T14:33:23.245Z,4.17
2023-02-08T14:35:53.001Z,6.08
2023-02-08T14:38:22.801Z,6.08
2023-02-08T14:40:52.408Z,5.80
2023-02-08T14:43:22.811Z,6.05
2023-02-08T14:45:51.987Z,4.85
2023-02-08T14:48:39.730Z,6.05
2023-02-08T14:51:12.169Z,6.40
2023-02-08T14:53:44.660Z,4.55
2023-02-08T14:56:26.431Z,5.20
2023-02-08T14:58:59.135Z,6.45
2023-02-08T15:01:44.350Z,4.80
2023-02-08T15:04:14.102Z,4.58
2023-02-08T15:07:01.788Z,4.47
2023-02-08T15:09:31.437Z,3.62
2023-02-08T15:12:01.186Z,4.22
2023-02-08T15:14:30.611Z,5.17
2023-02-08T15:16:58.918Z,6.92
2023-02-08T15:19:28.686Z,8.63
2023-02-08T15:21:58.481Z,3.08
2023-02-08T15:24:29.687Z,3.70
2023-02-08T15:26:58.125Z,4.92
2023-02-08T15:29:39.093Z,5.80
2023-02-08T15:31:57.893Z,4.80
2023-02-08T15:34:26.786Z,6.55
2023-02-08T15:36:55.927Z,5.35
2023-02-08T15:39:25.788Z,3.65
2023-02-08T15:41:55.537Z,5.05
2023-02-08T15:44:25.016Z,4.90
2023-02-08T15:49:22.470Z,5.03
2023-02-08T15:51:50.922Z,4.80
2023-02-08T15:54:19.748Z,5.53
2023-02-08T15:56:52.170Z,3.42
2023-02-08T15:59:32.617Z,6.53
2023-02-08T16:02:02.365Z,3.40
2023-02-08T16:04:30.643Z,4.55
2023-02-08T16:06:59.598Z,5.37
2023-02-08T16:09:29.537Z,6.37
2023-02-08T16:11:59.298Z,4.00
2023-02-08T16:14:30.202Z,4.70
2023-02-08T16:16:58.833Z,4.42
2023-02-08T16:19:28.688Z,16.12
2023-02-08T16:21:58.384Z,6.55
2023-02-08T16:24:28.683Z,5.67
2023-02-08T16:27:08.864Z,5.53
2023-02-08T16:29:41.004Z,6.42
2023-02-08T16:32:24.518Z,4.25
2023-02-08T16:34:53.347Z,7.53
2023-02-08T16:37:30.595Z,7.45
2023-02-08T16:40:05.168Z,11.53
2023-02-08T16:42:40.565Z,29.82
2023-02-08T16:45:15.110Z,11.35
2023-02-08T16:47:49.783Z,6.70
2023-02-08T16:50:21.095Z,11.12
2023-02-08T16:52:52.263Z,6.55
2023-02-08T16:55:23.884Z,6.45
2023-02-08T16:57:55.033Z,5.83
2023-02-08T17:00:32.573Z,4.58
2023-02-08T17:03:01.864Z,3.50
2023-02-08T17:05:33.198Z,5.05
2023-02-08T17:08:01.816Z,3.85
2023-02-08T17:10:32.769Z,5.25
2023-02-08T17:13:18.687Z,6.22
2023-02-08T17:15:32.883Z,8.00
2023-02-08T17:18:01.383Z,8.35
2023-02-08T17:20:32.820Z,13.55
2023-02-08T17:23:03.428Z,9.60
2023-02-08T17:25:33.158Z,7.70
2023-02-08T17:28:04.632Z,7.30
2023-02-08T17:30:36.271Z,6.72
2023-02-08T17:33:06.666Z,6.93
2023-02-08T17:35:37.636Z,6.62
2023-02-08T17:38:06.718Z,5.20
2023-02-08T17:40:37.024Z,6.33
2023-02-08T17:43:06.594Z,8.45
2023-02-08T17:45:39.235Z,7.12
2023-02-08T17:48:08.124Z,5.75
2023-02-08T17:50:37.020Z,5.92
2023-02-08T17:53:05.552Z,8.03
2023-02-08T17:55:34.098Z,5.72
2023-02-08T17:58:02.639Z,3.67
2023-02-08T18:00:31.194Z,10.05
2023-02-08T18:03:00.936Z,11.53
2023-02-08T18:05:30.125Z,20.62
2023-02-08T18:07:58.997Z,10.53
2023-02-08T18:10:28.251Z,8.63
2023-02-08T18:12:56.898Z,7.12
2023-02-08T18:15:25.482Z,6.65
2023-02-08T18:17:54.101Z,6.62
2023-02-08T18:20:22.720Z,6.83
2023-02-08T18:22:51.270Z,9.18
2023-02-08T18:25:20.470Z,8.93
2023-02-08T18:27:49.708Z,11.33
2023-02-08T18:30:18.865Z,6.97
2023-02-08T18:32:47.503Z,9.25
2023-02-08T18:35:16.054Z,7.90
2023-02-08T18:37:46.423Z,11.08
2023-02-08T18:40:14.958Z,9.65
2023-02-08T18:42:43.576Z,12.60
2023-02-08T18:45:11.843Z,9.78
2023-02-08T18:47:40.110Z,10.68
2023-02-08T18:50:09.026Z,9.25
2023-02-08T18:52:37.286Z,13.58
2023-02-08T18:55:05.641Z,10.80
2023-02-08T18:57:35.517Z,11.20
2023-02-08T19:00:04.020Z,9.40
2023-02-08T19:02:32.244Z,10.23
2023-02-08T19:05:00.450Z,10.95
2023-02-08T19:07:28.664Z,7.60
2023-02-08T19:09:56.911Z,12.30
2023-02-08T19:12:25.111Z,9.58
2023-02-08T19:14:53.324Z,13.00
2023-02-08T19:17:21.553Z,11.15
2023-02-08T19:19:49.833Z,8.80
2023-02-08T19:22:18.064Z,9.83
2023-02-08T19:24:46.259Z,16.65
2023-02-08T19:27:14.489Z,14.55
2023-02-08T19:29:45.050Z,16.70
2023-02-08T19:32:13.287Z,12.13
2023-02-08T19:34:41.447Z,11.03
2023-02-08T19:37:09.666Z,11.12
2023-02-08T19:39:37.990Z,12.63
2023-02-08T19:42:06.244Z,7.95
2023-02-08T19:44:34.492Z,11.93
2023-02-08T19:47:02.724Z,11.75
2023-02-08T19:49:31.086Z,11.05
2023-02-08T19:51:59.389Z,12.75
2023-02-08T19:54:27.618Z,11.90
2023-02-08T19:56:55.928Z,10.90
2023-02-08T19:59:28.459Z,4.80
2023-02-08T20:04:24.392Z,11.83
2023-02-08T20:06:53.122Z,10.85
2023-02-08T20:09:21.723Z,11.83
2023-02-08T20:11:56.797Z,11.93
2023-02-08T20:14:21.576Z,13.00
2023-02-08T20:16:49.863Z,11.18
2023-02-08T20:19:18.326Z,23.20
2023-02-08T20:21:46.515Z,8.75
2023-02-08T20:24:15.022Z,8.58
2023-02-08T20:26:44.915Z,10.55
2023-02-08T20:29:15.737Z,8.85
2023-02-08T20:31:46.387Z,10.90
2023-02-08T20:34:15.237Z,5.05
2023-02-08T20:37:04.520Z,9.38
2023-02-08T20:39:19.022Z,9.63
2023-02-08T20:41:47.447Z,14.93
2023-02-08T20:44:17.267Z,12.13
2023-02-08T20:46:46.461Z,14.33
2023-02-08T20:49:16.594Z,11.30
2023-02-08T20:51:44.820Z,11.25
2023-02-08T20:54:13.153Z,11.57
2023-02-08T20:56:41.484Z,10.80
2023-02-08T20:59:12.916Z,10.18
2023-02-08T21:01:41.242Z,11.63
2023-02-08T21:04:09.535Z,11.08
2023-02-08T21:06:38.073Z,13.08
2023-02-08T21:09:07.682Z,10.15
2023-02-08T21:11:36.329Z,13.05
2023-02-08T21:14:05.361Z,12.80
2023-02-08T21:16:33.566Z,12.82
2023-02-08T21:19:01.772Z,11.80
2023-02-08T21:21:29.979Z,12.82
2023-02-08T21:23:58.378Z,14.03
2023-02-08T21:26:26.869Z,13.62
2023-02-08T21:28:58.712Z,11.08
2023-02-08T21:31:27.223Z,13.32
2023-02-08T21:33:55.432Z,17.98
2023-02-08T21:36:24.321Z,15.90
2023-02-08T21:38:52.556Z,17.25
2023-02-08T21:41:22.090Z,18.35
2023-02-08T21:43:50.663Z,12.75
2023-02-08T21:46:19.205Z,15.20
2023-02-08T21:48:55.462Z,11.43
2023-02-08T21:51:43.303Z,16.20
2023-02-08T21:54:35.426Z,16.87
2023-02-08T21:57:06.659Z,15.83
2023-02-08T21:59:37.012Z,16.75
2023-02-08T22:02:11.534Z,16.80
2023-02-08T22:04:58.057Z,15.38
2023-02-08T22:07:27.867Z,24.23
2023-02-08T22:09:56.765Z,29.72
2023-02-08T22:12:25.479Z,32.95
2023-02-08T22:14:54.122Z,29.23
2023-02-08T22:17:22.610Z,27.13
2023-02-08T22:19:51.656Z,21.87
2023-02-08T22:22:19.982Z,19.85
2023-02-08T22:24:48.236Z,14.95
2023-02-08T22:27:16.555Z,14.45
2023-02-08T22:29:44.776Z,12.50
2023-02-08T22:32:14.693Z,12.93
2023-02-08T22:34:44.502Z,12.65
2023-02-08T22:37:13.111Z,13.08
2023-02-08T22:39:41.305Z,14.98
2023-02-08T22:42:11.331Z,14.40
2023-02-08T22:44:39.911Z,13.08
2023-02-08T22:47:08.602Z,11.85
2023-02-08T22:49:37.704Z,14.25
2023-02-08T22:52:08.626Z,14.35
2023-02-08T22:54:37.099Z,14.15
2023-02-08T22:57:06.144Z,14.40
2023-02-08T22:59:34.567Z,19.48
2023-02-08T23:02:02.870Z,13.83
2023-02-08T23:04:31.758Z,16.30
2023-02-08T23:07:00.426Z,12.28
2023-02-08T23:09:28.728Z,14.07
2023-02-08T23:11:57.155Z,13.50
2023-02-08T23:14:25.905Z,14.10
2023-02-08T23:16:54.142Z,14.55
2023-02-08T23:19:22.349Z,15.03
2023-02-08T23:21:50.548Z,15.78
2023-02-08T23:24:18.798Z,14.55
2023-02-08T23:26:47.570Z,11.90
2023-02-08T23:29:15.776Z,11.30
2023-02-08T23:31:44.776Z,11.48
2023-02-08T23:34:13.074Z,15.18
2023-02-08T23:36:41.350Z,13.32
2023-02-08T23:39:09.547Z,12.07
2023-02-08T23:41:37.767Z,15.28
2023-02-08T23:44:06.113Z,12.98
2023-02-08T23:46:34.479Z,15.48
2023-02-08T23:49:02.786Z,13.28
2023-02-08T23:51:30.992Z,17.32
2023-02-08T23:53:59.258Z,14.65
2023-02-08T23:56:28.730Z,15.72
2023-02-08T23:58:58.190Z,13.20
